Triumph — WDC9555 — position and weather

sailwx.info

Track history (hours):
 
Tides and Currents Weather Stations Pressure Air Temp Water Temp Dewpoint Dewpoint Depression Visibility Wind Speed Wind Dir Waves Ship Positions

Triumph

Owner: WESTERN TOWBOAT CO, SEATTLE, WA. More information available from US FCC via Universal Licensing System and Coast Guard Vessel Documentation Center.

Last reported at 2015-Mar-14 00:47 UTC. Time now 2015-Mar-27 05:21 UTC.
Position N 47°39' W 122°22'.
Warning: this ship's position is 13 days out of date.

Length 24 m; draft 3 m.

Type: Tow > 200 m length. MMSI: 367103880.

Date/timePositionNaut miles runAvg speedWind from/ knotsBaromVisibWave heightAir tempDewpointWater temp
2015-Mar-14 00:47N 47°39' W 122°22'0 0.0
2015-Mar-14 00:33N 47°39' W 122°22'0 0.0
2015-Mar-14 00:32N 47°39' W 122°22'2 1.7
2015-Mar-13 23:31N 47°40' W 122°24'3 5.2
2015-Mar-13 23:01N 47°37' W 122°25'3 5.6
2015-Mar-13 22:33N 47°36' W 122°22'0 0.0
2015-Mar-13 22:31N 47°36' W 122°22'4 4.6
2015-Mar-13 21:33N 47°39' W 122°27'0 6.4
2015-Mar-13 21:31N 47°39' W 122°27'6 5.9
2015-Mar-13 20:33N 47°44' W 122°27'0 5.9
2015-Mar-13 20:30N 47°45' W 122°27'6 6.5
2015-Mar-13 19:33N 47°51' W 122°29'0 6.0
2015-Mar-13 19:30N 47°51' W 122°29'6 6.1
2015-Mar-13 18:33N 47°56' W 122°33'7 6.7
2015-Mar-13 17:33N 48°02' W 122°38'9 6.7
2015-Mar-13 16:14N 48°09' W 122°45'12 7.1
2015-Mar-13 14:32N 48°21' W 122°46'7 7.0
2015-Mar-13 13:33N 48°28' W 122°45'7 7.4
2015-Mar-13 12:33N 48°36' W 122°46'7 7.1
2015-Mar-13 11:33N 48°43' W 122°45'8 7.6
2015-Mar-13 10:33N 48°48' W 122°54'7 7.1
2015-Mar-13 09:33N 48°52' W 123°03'8 7.6
2015-Mar-13 08:33N 48°56' W 123°11'8 7.6
2015-Mar-13 07:33N 49°02' W 123°20'6 5.5
2015-Mar-13 06:33N 49°07' W 123°16'5 4.8
2015-Mar-13 05:33N 49°07' W 123°09'5 5.0
2015-Mar-13 04:33N 49°09' W 123°02'0 0.2
2015-Mar-13 03:33N 49°09' W 123°02'0 0.0
2015-Mar-13 02:33N 49°09' W 123°02'0 0.0
2015-Mar-13 01:33N 49°09' W 123°02'0 0.0
2015-Mar-13 00:33N 49°09' W 123°02'0 0.0
2015-Mar-12 23:33N 49°09' W 123°02'0 0.0
2015-Mar-12 22:33N 49°09' W 123°02'0 0.0
2015-Mar-12 21:33N 49°09' W 123°02'0 0.0
2015-Mar-12 20:33N 49°09' W 123°02'0 0.0
2015-Mar-12 19:33N 49°09' W 123°02'0 0.0
2015-Mar-12 18:33N 49°09' W 123°02'0 0.0
2015-Mar-12 17:33N 49°09' W 123°02'0 0.0
2015-Mar-12 16:33N 49°09' W 123°02'0 0.0
2015-Mar-12 15:33N 49°09' W 123°02'0 0.0
2015-Mar-12 14:33N 49°09' W 123°02'0 0.0
2015-Mar-12 13:33N 49°09' W 123°02'0 0.0
2015-Mar-12 12:33N 49°09' W 123°02'0 0.0
2015-Mar-12 11:33N 49°09' W 123°02'0 0.0
2015-Mar-12 10:33N 49°09' W 123°02'0 0.0
2015-Mar-12 09:33N 49°09' W 123°02'4 3.7
2015-Mar-12 08:33N 49°07' W 123°07'7 7.0
2015-Mar-12 07:33N 49°07' W 123°17'6 5.9
2015-Mar-12 06:33N 49°01' W 123°14'8 8.4
2015-Mar-12 05:33N 48°56' W 123°05'9 9.0
2015-Mar-12 04:33N 48°49' W 122°55'9 9.1
2015-Mar-12 03:33N 48°43' W 122°44'10 9.8
2015-Mar-12 02:33N 48°34' W 122°45'18 9.1
2015-Mar-12 00:32N 48°15' W 122°48'10 8.0
2015-Mar-11 23:17N 48°07' W 122°39'810.3
2015-Mar-11 22:30N 47°59' W 122°35'1 9.8
2015-Mar-11 22:22N 47°58' W 122°34'8 9.4
2015-Mar-11 21:33N 47°52' W 122°28'010.2
2015-Mar-11 21:32N 47°52' W 122°28'9 9.6
2015-Mar-11 20:33N 47°42' W 122°26'0 9.9
2015-Mar-11 20:31N 47°42' W 122°26'8 8.5
2015-Mar-11 19:34N 47°35' W 122°22'0 6.7
2015-Mar-11 19:30N 47°34' W 122°21'0 0.4
2015-Mar-11 18:33N 47°34' W 122°21'0 0.0
2015-Mar-10 20:48N 47°34' W 122°21'1 5.5
2015-Mar-10 20:34N 47°33' W 122°20'0 5.3
2015-Mar-10 20:33N 47°33' W 122°20'1 0.7
2015-Mar-10 19:33N 47°33' W 122°21'0 2.8
2015-Mar-10 19:33N 47°33' W 122°21'3 2.9
2015-Mar-10 18:33N 47°36' W 122°22'0 0.3
2015-Mar-10 18:32N 47°36' W 122°22'4 4.1
2015-Mar-10 17:33N 47°32' W 122°20'0 0.2
2015-Mar-10 17:32N 47°32' W 122°20'0 0.5
2015-Mar-10 16:33N 47°33' W 122°20'0 0.1
2015-Mar-10 16:16N 47°33' W 122°20'3 4.3
2015-Mar-10 15:33N 47°36' W 122°22'0 0.2
2015-Mar-10 15:31N 47°36' W 122°22'0 0.5
2015-Mar-10 14:33N 47°36' W 122°22'0 0.1
2015-Mar-10 14:31N 47°36' W 122°22'2 1.6
2015-Mar-10 13:33N 47°34' W 122°21'0 0.0
2015-Mar-10 13:31N 47°34' W 122°21'  
2015-Mar-07 13:48N 47°34' W 122°21'0 0.1
2015-Mar-07 13:33N 47°34' W 122°21'0 0.0
2015-Mar-07 13:33N 47°34' W 122°21'1 1.3
2015-Mar-07 12:33N 47°35' W 122°21'0 1.8
2015-Mar-07 12:32N 47°35' W 122°21'6 6.1
2015-Mar-07 11:33N 47°39' W 122°28'0 8.9
2015-Mar-07 11:32N 47°40' W 122°28'9 9.4
2015-Mar-07 10:33N 47°49' W 122°28'5 9.4
2015-Mar-07 10:01N 47°54' W 122°30'4 9.5
2015-Mar-07 09:33N 47°57' W 122°34'11 9.3
2015-Mar-07 08:20N 48°07' W 122°41'7 9.5
2015-Mar-07 07:33N 48°11' W 122°51'8 8.3
2015-Mar-07 06:33N 48°12' W 123°03'8 7.8
2015-Mar-07 05:33N 48°11' W 123°15'7 7.0
2015-Mar-07 04:33N 48°08' W 123°25'1 0.5
2015-Mar-07 03:32N 48°08' W 123°25'0 0.0
2015-Mar-07 02:33N 48°08' W 123°25'0 0.0
2015-Mar-07 01:33N 48°08' W 123°25'0 0.0
2015-Mar-07 00:04N 48°08' W 123°25'0 0.0
2015-Mar-06 23:33N 48°08' W 123°25'0 0.0
2015-Mar-06 22:33N 48°08' W 123°25'0 0.0
2015-Mar-06 21:30N 48°08' W 123°25'0 0.0
2015-Mar-06 20:33N 48°08' W 123°25'0 0.0
2015-Mar-06 19:25N 48°08' W 123°25'0 0.0
2015-Mar-06 18:33N 48°08' W 123°25'1 0.7
2015-Mar-06 17:33N 48°08' W 123°26'0 0.2
2015-Mar-06 16:33N 48°08' W 123°27'0 0.5
2015-Mar-06 15:33N 48°08' W 123°26'2 2.4
2015-Mar-06 14:33N 48°09' W 123°22'4 4.2
2015-Mar-06 13:33N 48°10' W 123°17'6 5.5
2015-Mar-06 12:33N 48°13' W 123°09'13 5.6
2015-Mar-06 10:18N 48°12' W 122°51'4 5.2
2015-Mar-06 09:33N 48°10' W 122°45'6 5.8
2015-Mar-06 08:30N 48°06' W 122°39'7 7.7
2015-Mar-06 07:33N 47°59' W 122°35'2 7.8
2015-Mar-06 07:21N 47°58' W 122°34'3 8.1
2015-Mar-06 07:01N 47°57' W 122°30'4 7.9
2015-Mar-06 06:33N 47°53' W 122°28'8 8.2
2015-Mar-06 05:33N 47°45' W 122°25'0 8.2
2015-Mar-06 05:31N 47°45' W 122°26'7 7.7
2015-Mar-06 04:34N 47°38' W 122°25'1 7.7
2015-Mar-06 04:24N 47°37' W 122°24'2 2.5
2015-Mar-06 03:34N 47°35' W 122°21'1 4.0
2015-Mar-06 03:25N 47°35' W 122°22'4 4.6
2015-Mar-06 02:33N 47°37' W 122°26'1 8.5
2015-Mar-06 02:30N 47°38' W 122°27'4 4.3
2015-Mar-06 01:34N 47°35' W 122°22'1 8.6
2015-Mar-06 01:29N 47°35' W 122°22'1 0.8
2015-Mar-06 00:33N 47°34' W 122°21'0 0.0
2015-Mar-06 00:29N 47°34' W 122°21'0 0.0
2015-Mar-05 23:33N 47°34' W 122°21'0 0.0
2015-Mar-05 23:24N 47°34' W 122°21'1 1.0
2015-Mar-05 22:33N 47°35' W 122°22'1 6.5
2015-Mar-05 22:28N 47°35' W 122°21'2 1.9
2015-Mar-05 21:33N 47°37' W 122°22'0 0.0
2015-Mar-05 21:33N 47°37' W 122°22'0 0.1
2015-Mar-05 20:33N 47°37' W 122°22'0 0.0
2015-Mar-05 20:33N 47°37' W 122°22'0 0.0
2015-Mar-05 19:33N 47°37' W 122°22'0 0.5
2015-Mar-05 19:33N 47°37' W 122°22'0 0.0
2015-Mar-05 18:33N 47°37' W 122°22'0 0.0
2015-Mar-05 18:33N 47°37' W 122°22'0 0.1
2015-Mar-05 17:33N 47°37' W 122°22'0 0.0
2015-Mar-05 17:33N 47°37' W 122°22'0 0.1
2015-Mar-05 16:33N 47°37' W 122°22'0 0.0
2015-Mar-05 16:32N 47°37' W 122°22'0 0.1
2015-Mar-05 15:33N 47°37' W 122°22'0 0.1
2015-Mar-05 15:26N 47°37' W 122°22'1 1.4
2015-Mar-05 14:33N 47°36' W 122°21'0 4.3
2015-Mar-05 14:31N 47°36' W 122°21'0 0.3
2015-Mar-05 13:33N 47°35' W 122°21'0 0.0
2015-Mar-05 13:31N 47°35' W 122°21'3 2.9
2015-Mar-05 12:33N 47°37' W 122°24'0 9.4
2015-Mar-05 12:31N 47°37' W 122°25'3 2.7
2015-Mar-05 11:34N 47°40' W 122°23'0 5.1
2015-Mar-05 11:31N 47°40' W 122°23'  
Track history (hours):
 
Tides and Currents Weather Stations Pressure Air Temp Water Temp Dewpoint Dewpoint Depression Visibility Wind Speed Wind Dir Waves Ship Positions

Triumph

Owner: WESTERN TOWBOAT CO, SEATTLE, WA. More information available from US FCC via Universal Licensing System and Coast Guard Vessel Documentation Center.

Last reported at 2015-Mar-14 00:47 UTC. Time now 2015-Mar-27 05:21 UTC.
Position N 47°39' W 122°22'.
Warning: this ship's position is 13 days out of date.

Length 24 m; draft 3 m.

Type: Tow > 200 m length. MMSI: 367103880.

Date/timePositionNaut miles runAvg speedWind from/ knotsBaromVisibWave heightAir tempDewpointWater temp
2015-Mar-14 00:47N 47°39' W 122°22'0 0.0
2015-Mar-14 00:33N 47°39' W 122°22'0 0.0
2015-Mar-14 00:32N 47°39' W 122°22'2 1.7
2015-Mar-13 23:31N 47°40' W 122°24'3 5.2
2015-Mar-13 23:01N 47°37' W 122°25'3 5.6
2015-Mar-13 22:33N 47°36' W 122°22'0 0.0
2015-Mar-13 22:31N 47°36' W 122°22'4 4.6
2015-Mar-13 21:33N 47°39' W 122°27'0 6.4
2015-Mar-13 21:31N 47°39' W 122°27'6 5.9
2015-Mar-13 20:33N 47°44' W 122°27'0 5.9
2015-Mar-13 20:30N 47°45' W 122°27'6 6.5
2015-Mar-13 19:33N 47°51' W 122°29'0 6.0
2015-Mar-13 19:30N 47°51' W 122°29'6 6.1
2015-Mar-13 18:33N 47°56' W 122°33'7 6.7
2015-Mar-13 17:33N 48°02' W 122°38'9 6.7
2015-Mar-13 16:14N 48°09' W 122°45'12 7.1
2015-Mar-13 14:32N 48°21' W 122°46'7 7.0
2015-Mar-13 13:33N 48°28' W 122°45'7 7.4
2015-Mar-13 12:33N 48°36' W 122°46'7 7.1
2015-Mar-13 11:33N 48°43' W 122°45'8 7.6
2015-Mar-13 10:33N 48°48' W 122°54'7 7.1
2015-Mar-13 09:33N 48°52' W 123°03'8 7.6
2015-Mar-13 08:33N 48°56' W 123°11'8 7.6
2015-Mar-13 07:33N 49°02' W 123°20'6 5.5
2015-Mar-13 06:33N 49°07' W 123°16'5 4.8
2015-Mar-13 05:33N 49°07' W 123°09'5 5.0
2015-Mar-13 04:33N 49°09' W 123°02'0 0.2
2015-Mar-13 03:33N 49°09' W 123°02'0 0.0
2015-Mar-13 02:33N 49°09' W 123°02'0 0.0
2015-Mar-13 01:33N 49°09' W 123°02'0 0.0
2015-Mar-13 00:33N 49°09' W 123°02'0 0.0
2015-Mar-12 23:33N 49°09' W 123°02'0 0.0
2015-Mar-12 22:33N 49°09' W 123°02'0 0.0
2015-Mar-12 21:33N 49°09' W 123°02'0 0.0
2015-Mar-12 20:33N 49°09' W 123°02'0 0.0
2015-Mar-12 19:33N 49°09' W 123°02'0 0.0
2015-Mar-12 18:33N 49°09' W 123°02'0 0.0
2015-Mar-12 17:33N 49°09' W 123°02'0 0.0
2015-Mar-12 16:33N 49°09' W 123°02'0 0.0
2015-Mar-12 15:33N 49°09' W 123°02'0 0.0
2015-Mar-12 14:33N 49°09' W 123°02'0 0.0
2015-Mar-12 13:33N 49°09' W 123°02'0 0.0
2015-Mar-12 12:33N 49°09' W 123°02'0 0.0
2015-Mar-12 11:33N 49°09' W 123°02'0 0.0
2015-Mar-12 10:33N 49°09' W 123°02'0 0.0
2015-Mar-12 09:33N 49°09' W 123°02'4 3.7
2015-Mar-12 08:33N 49°07' W 123°07'7 7.0
2015-Mar-12 07:33N 49°07' W 123°17'6 5.9
2015-Mar-12 06:33N 49°01' W 123°14'8 8.4
2015-Mar-12 05:33N 48°56' W 123°05'9 9.0
2015-Mar-12 04:33N 48°49' W 122°55'9 9.1
2015-Mar-12 03:33N 48°43' W 122°44'10 9.8
2015-Mar-12 02:33N 48°34' W 122°45'18 9.1
2015-Mar-12 00:32N 48°15' W 122°48'10 8.0
2015-Mar-11 23:17N 48°07' W 122°39'810.3
2015-Mar-11 22:30N 47°59' W 122°35'1 9.8
2015-Mar-11 22:22N 47°58' W 122°34'8 9.4
2015-Mar-11 21:33N 47°52' W 122°28'010.2
2015-Mar-11 21:32N 47°52' W 122°28'9 9.6
2015-Mar-11 20:33N 47°42' W 122°26'0 9.9
2015-Mar-11 20:31N 47°42' W 122°26'8 8.5
2015-Mar-11 19:34N 47°35' W 122°22'0 6.7
2015-Mar-11 19:30N 47°34' W 122°21'0 0.4
2015-Mar-11 18:33N 47°34' W 122°21'0 0.0
2015-Mar-10 20:48N 47°34' W 122°21'1 5.5
2015-Mar-10 20:34N 47°33' W 122°20'0 5.3
2015-Mar-10 20:33N 47°33' W 122°20'1 0.7
2015-Mar-10 19:33N 47°33' W 122°21'0 2.8
2015-Mar-10 19:33N 47°33' W 122°21'3 2.9
2015-Mar-10 18:33N 47°36' W 122°22'0 0.3
2015-Mar-10 18:32N 47°36' W 122°22'4 4.1
2015-Mar-10 17:33N 47°32' W 122°20'0 0.2
2015-Mar-10 17:32N 47°32' W 122°20'0 0.5
2015-Mar-10 16:33N 47°33' W 122°20'0 0.1
2015-Mar-10 16:16N 47°33' W 122°20'3 4.3
2015-Mar-10 15:33N 47°36' W 122°22'0 0.2
2015-Mar-10 15:31N 47°36' W 122°22'0 0.5
2015-Mar-10 14:33N 47°36' W 122°22'0 0.1
2015-Mar-10 14:31N 47°36' W 122°22'2 1.6
2015-Mar-10 13:33N 47°34' W 122°21'0 0.0
2015-Mar-10 13:31N 47°34' W 122°21'  
2015-Mar-07 13:48N 47°34' W 122°21'0 0.1
2015-Mar-07 13:33N 47°34' W 122°21'0 0.0
2015-Mar-07 13:33N 47°34' W 122°21'1 1.3
2015-Mar-07 12:33N 47°35' W 122°21'0 1.8
2015-Mar-07 12:32N 47°35' W 122°21'6 6.1
2015-Mar-07 11:33N 47°39' W 122°28'0 8.9
2015-Mar-07 11:32N 47°40' W 122°28'9 9.4
2015-Mar-07 10:33N 47°49' W 122°28'5 9.4
2015-Mar-07 10:01N 47°54' W 122°30'4 9.5
2015-Mar-07 09:33N 47°57' W 122°34'11 9.3
2015-Mar-07 08:20N 48°07' W 122°41'7 9.5
2015-Mar-07 07:33N 48°11' W 122°51'8 8.3
2015-Mar-07 06:33N 48°12' W 123°03'8 7.8
2015-Mar-07 05:33N 48°11' W 123°15'7 7.0
2015-Mar-07 04:33N 48°08' W 123°25'1 0.5
2015-Mar-07 03:32N 48°08' W 123°25'0 0.0
2015-Mar-07 02:33N 48°08' W 123°25'0 0.0
2015-Mar-07 01:33N 48°08' W 123°25'0 0.0
2015-Mar-07 00:04N 48°08' W 123°25'0 0.0
2015-Mar-06 23:33N 48°08' W 123°25'0 0.0
2015-Mar-06 22:33N 48°08' W 123°25'0 0.0
2015-Mar-06 21:30N 48°08' W 123°25'0 0.0
2015-Mar-06 20:33N 48°08' W 123°25'0 0.0
2015-Mar-06 19:25N 48°08' W 123°25'0 0.0
2015-Mar-06 18:33N 48°08' W 123°25'1 0.7
2015-Mar-06 17:33N 48°08' W 123°26'0 0.2
2015-Mar-06 16:33N 48°08' W 123°27'0 0.5
2015-Mar-06 15:33N 48°08' W 123°26'2 2.4
2015-Mar-06 14:33N 48°09' W 123°22'4 4.2
2015-Mar-06 13:33N 48°10' W 123°17'6 5.5
2015-Mar-06 12:33N 48°13' W 123°09'13 5.6
2015-Mar-06 10:18N 48°12' W 122°51'4 5.2
2015-Mar-06 09:33N 48°10' W 122°45'6 5.8
2015-Mar-06 08:30N 48°06' W 122°39'7 7.7
2015-Mar-06 07:33N 47°59' W 122°35'2 7.8
2015-Mar-06 07:21N 47°58' W 122°34'3 8.1
2015-Mar-06 07:01N 47°57' W 122°30'4 7.9
2015-Mar-06 06:33N 47°53' W 122°28'8 8.2
2015-Mar-06 05:33N 47°45' W 122°25'0 8.2
2015-Mar-06 05:31N 47°45' W 122°26'7 7.7
2015-Mar-06 04:34N 47°38' W 122°25'1 7.7
2015-Mar-06 04:24N 47°37' W 122°24'2 2.5
2015-Mar-06 03:34N 47°35' W 122°21'1 4.0
2015-Mar-06 03:25N 47°35' W 122°22'4 4.6
2015-Mar-06 02:33N 47°37' W 122°26'1 8.5
2015-Mar-06 02:30N 47°38' W 122°27'4 4.3
2015-Mar-06 01:34N 47°35' W 122°22'1 8.6
2015-Mar-06 01:29N 47°35' W 122°22'1 0.8
2015-Mar-06 00:33N 47°34' W 122°21'0 0.0
2015-Mar-06 00:29N 47°34' W 122°21'0 0.0
2015-Mar-05 23:33N 47°34' W 122°21'0 0.0
2015-Mar-05 23:24N 47°34' W 122°21'1 1.0
2015-Mar-05 22:33N 47°35' W 122°22'1 6.5
2015-Mar-05 22:28N 47°35' W 122°21'2 1.9
2015-Mar-05 21:33N 47°37' W 122°22'0 0.0
2015-Mar-05 21:33N 47°37' W 122°22'0 0.1
2015-Mar-05 20:33N 47°37' W 122°22'0 0.0
2015-Mar-05 20:33N 47°37' W 122°22'0 0.0
2015-Mar-05 19:33N 47°37' W 122°22'0 0.5
2015-Mar-05 19:33N 47°37' W 122°22'0 0.0
2015-Mar-05 18:33N 47°37' W 122°22'0 0.0
2015-Mar-05 18:33N 47°37' W 122°22'0 0.1
2015-Mar-05 17:33N 47°37' W 122°22'0 0.0
2015-Mar-05 17:33N 47°37' W 122°22'0 0.1
2015-Mar-05 16:33N 47°37' W 122°22'0 0.0
2015-Mar-05 16:32N 47°37' W 122°22'0 0.1
2015-Mar-05 15:33N 47°37' W 122°22'0 0.1
2015-Mar-05 15:26N 47°37' W 122°22'1 1.4
2015-Mar-05 14:33N 47°36' W 122°21'0 4.3
2015-Mar-05 14:31N 47°36' W 122°21'0 0.3
2015-Mar-05 13:33N 47°35' W 122°21'0 0.0
2015-Mar-05 13:31N 47°35' W 122°21'3 2.9
2015-Mar-05 12:33N 47°37' W 122°24'0 9.4
2015-Mar-05 12:31N 47°37' W 122°25'3 2.7
2015-Mar-05 11:34N 47°40' W 122°23'0 5.1
2015-Mar-05 11:31N 47°40' W 122°23'  

Dump ship's entire track history